Hauptseite
METAR-TAF:

METAR-TAF

Flughäfen :

Flughafen Heringsdorf

Heringsdorf, Deutschland

Breite: 53-53N, Länge: 014-09E, Höhe: 28 m

Beobachtung

Neuester Wetterbericht von vor 37 Minuten, um 23:20 UTC
Wind 3 kt aus Südost, variierte zwischen Ost und Süd
Temperatur 18°C
Luftfeuchtigkeit 73%
Luftdruck 1010 hPa
Sichtweite 10 km oder mehr

METAR: EDAH 162320Z AUTO 13003KT 100V170 9999 // OVC100/// 18/13 Q1010

Zeit: 01:57 (23:57 UTC)

Prognose

Neuester Wetterbericht von vor 6 Stunden und 57 Minuten, um 17:00 UTC
Gültige Prognose vom 16 um 18 UTC bis 17 um 03 UTC
Wind 10 kt aus West/Südwest
Sichtweite 10 km oder mehr
keine Wolken unter 1500 m und keine Kumulonimbus oder Gewitterwolken
Wahrscheinlichkeit 30% :
Zeitweise
vom 16 um 22 UTC bis 17 um 02 UTC
Durchbrochene Bewölkung in der Höhe von 3000 ft, Kumulonimbus.
Regenschauer,

TAF: EDAH 161700Z 1618/1703 25010KT CAVOK PROB30 TEMPO 1622/1702 SHRA BKN030CB

Wetterbeobachtungen und Prognosen von mehr als 4000 Flughäfen (METAR und TAF Bericht).

Die verfügbaren Stationen werden durch gelbe und rote Markierungen auf der Karte dargestellt.

Führen Sie die Maus auf sie, um den Namen der Station zu sehen.

Darauf klicken, um die Beobachtung von Wetterbeobachtungen und Prognosen zu sehen.

Um die Karte zu ändern : klicken Sie auf den grünen Tasten mit einem schwarzen Kreuz Zum Vergrößern, auf den grünen Button mit einem Gedankenstrich zu verkleinern, oder auf die grünen Pfeile für benachbarte Karten.


METAR-TAF: